Terminal Aerodrome Forecast
Issued by NWS

Current Version | Previous Version | Text Only | Print | Product List | Glossary On
Versions: 1 2 3 4 5 6 7 8 9 10 11 12 13 14 15 16 17
000
FTUS41 KBOX 280524
TAFHYA
TAF
KHYA 280524Z 2806/2906 21006KT P6SM SKC
     FM281700 20010KT P6SM FEW250
     FM290200 20008KT P6SM BKN070=

USA.gov is the U.S. government's official web portal to all federal, state and local government web resources and services.